createdAt,value
2022-10-22T00:01:14.197Z,15.62
2022-10-22T00:03:19.066Z,15.61
2022-10-22T00:05:23.807Z,15.59
2022-10-22T00:07:31.200Z,15.61
2022-10-22T00:09:35.944Z,15.61
2022-10-22T00:11:40.860Z,15.61
2022-10-22T00:15:52.316Z,15.62
2022-10-22T00:17:57.082Z,15.63
2022-10-22T00:20:01.784Z,15.63
2022-10-22T00:22:07.081Z,15.64
2022-10-22T00:24:14.413Z,15.63
2022-10-22T00:26:19.146Z,15.63
2022-10-22T00:28:23.887Z,15.65
2022-10-22T00:30:32.468Z,15.66
2022-10-22T00:32:37.417Z,15.67
2022-10-22T00:34:42.449Z,15.68
2022-10-22T00:36:47.282Z,15.69
2022-10-22T00:38:52.036Z,15.68
2022-10-22T00:40:59.495Z,15.67
2022-10-22T00:43:04.395Z,15.65
2022-10-22T00:45:24.919Z,15.66
2022-10-22T00:47:35.926Z,15.61
2022-10-22T00:49:40.718Z,15.61
2022-10-22T00:51:45.525Z,15.57
2022-10-22T00:53:53.609Z,15.57
2022-10-22T00:56:01.718Z,15.58
2022-10-22T00:58:06.937Z,15.58
2022-10-22T01:00:13.833Z,15.59
2022-10-22T01:02:19.126Z,15.56
2022-10-22T01:04:23.953Z,15.58
2022-10-22T01:06:34.264Z,15.59
2022-10-22T01:08:47.486Z,15.60
2022-10-22T01:11:06.572Z,15.59
2022-10-22T01:13:20.285Z,15.59
2022-10-22T01:15:31.128Z,15.57
2022-10-22T01:17:42.987Z,15.56
2022-10-22T01:20:00.740Z,15.56
2022-10-22T01:22:11.848Z,15.52
2022-10-22T01:24:38.519Z,15.45
2022-10-22T01:27:02.552Z,15.45
2022-10-22T01:29:14.418Z,15.46
2022-10-22T01:31:20.974Z,15.27
2022-10-22T01:33:30.746Z,15.24
2022-10-22T01:35:40.197Z,15.21
2022-10-22T01:37:52.281Z,15.16
2022-10-22T01:39:58.731Z,15.12
2022-10-22T01:42:03.483Z,15.07
2022-10-22T01:44:28.211Z,15.07
2022-10-22T01:46:33.367Z,15.11
2022-10-22T01:48:51.636Z,15.11
2022-10-22T01:51:09.989Z,15.13
2022-10-22T01:53:26.184Z,15.19
2022-10-22T01:55:39.167Z,15.16
2022-10-22T01:57:51.602Z,15.15
2022-10-22T02:00:05.365Z,15.22
2022-10-22T02:02:26.538Z,15.22
2022-10-22T02:04:36.592Z,15.19
2022-10-22T02:06:45.341Z,15.21
2022-10-22T02:08:52.236Z,15.20
2022-10-22T02:10:58.073Z,15.23
2022-10-22T02:13:04.375Z,15.25
2022-10-22T02:15:14.913Z,15.17
2022-10-22T02:17:25.507Z,15.13
2022-10-22T02:19:38.394Z,15.20
2022-10-22T02:21:43.179Z,15.16
2022-10-22T02:23:48.309Z,15.16
2022-10-22T02:25:58.540Z,15.20
2022-10-22T02:28:15.691Z,15.05
2022-10-22T02:30:25.467Z,15.03
2022-10-22T02:32:35.582Z,15.06
2022-10-22T02:34:40.662Z,15.10
2022-10-22T02:36:48.240Z,15.08
2022-10-22T02:38:56.336Z,15.10
2022-10-22T02:41:01.888Z,15.14
2022-10-22T02:43:07.656Z,15.18
2022-10-22T02:45:13.411Z,15.21
2022-10-22T02:47:20.892Z,15.24
2022-10-22T02:49:25.702Z,15.29
2022-10-22T02:51:30.463Z,15.32
2022-10-22T02:53:35.411Z,15.31
2022-10-22T02:55:40.116Z,15.33
2022-10-22T02:57:45.268Z,15.29
2022-10-22T02:59:49.708Z,15.26
2022-10-22T03:01:54.506Z,15.22
2022-10-22T03:04:01.945Z,15.24
2022-10-22T03:06:06.895Z,15.22
2022-10-22T03:08:11.614Z,15.23
2022-10-22T03:10:16.343Z,15.25
2022-10-22T03:12:21.090Z,15.23
2022-10-22T03:14:25.839Z,15.25
2022-10-22T03:16:30.639Z,15.24
2022-10-22T03:18:35.468Z,15.26
2022-10-22T03:20:42.799Z,15.28
2022-10-22T03:22:48.012Z,15.25
2022-10-22T03:24:55.540Z,15.20
2022-10-22T03:27:01.168Z,15.18
2022-10-22T03:29:06.078Z,15.21
2022-10-22T03:31:11.217Z,15.21
2022-10-22T03:33:15.907Z,15.19
2022-10-22T03:35:20.729Z,15.20
2022-10-22T03:37:30.305Z,15.22
2022-10-22T03:39:37.803Z,15.23
2022-10-22T03:41:43.034Z,15.23
2022-10-22T03:43:51.606Z,15.22
2022-10-22T03:45:56.325Z,15.21
2022-10-22T03:48:01.068Z,15.21
2022-10-22T03:50:06.302Z,15.23
2022-10-22T03:52:11.276Z,15.18
2022-10-22T03:54:19.633Z,15.20
2022-10-22T03:56:24.719Z,15.20
2022-10-22T03:58:31.275Z,15.19
2022-10-22T04:00:38.433Z,15.20
2022-10-22T04:02:43.192Z,15.20
2022-10-22T04:04:47.916Z,15.19
2022-10-22T04:06:52.686Z,15.07
2022-10-22T04:08:57.511Z,14.98
2022-10-22T04:11:04.855Z,14.93
2022-10-22T04:13:09.635Z,14.94
2022-10-22T04:15:14.361Z,14.97
2022-10-22T04:17:19.366Z,15.01
2022-10-22T04:19:24.227Z,15.03
2022-10-22T04:21:30.785Z,15.06
2022-10-22T04:23:35.592Z,15.04
2022-10-22T04:25:40.438Z,15.01
2022-10-22T04:27:47.722Z,15.03
2022-10-22T04:29:52.484Z,15.05
2022-10-22T04:31:57.277Z,15.07
2022-10-22T04:34:03.458Z,15.07
2022-10-22T04:36:12.612Z,15.07
2022-10-22T04:38:17.513Z,15.08
2022-10-22T04:40:22.189Z,15.09
2022-10-22T04:42:29.937Z,15.13
2022-10-22T04:44:37.721Z,15.13
2022-10-22T04:46:42.449Z,15.11
2022-10-22T04:48:48.694Z,15.11
2022-10-22T04:50:53.504Z,15.15
2022-10-22T04:52:58.490Z,15.17
2022-10-22T04:55:03.263Z,15.15
2022-10-22T04:57:08.025Z,15.14
2022-10-22T04:59:15.406Z,15.13
2022-10-22T05:01:28.087Z,15.13
2022-10-22T05:03:32.864Z,15.12
2022-10-22T05:05:37.554Z,15.12
2022-10-22T05:07:42.597Z,15.10
2022-10-22T05:09:47.731Z,15.11
2022-10-22T05:11:54.266Z,15.09
2022-10-22T05:13:59.768Z,15.07
2022-10-22T05:16:04.956Z,15.03
2022-10-22T05:18:12.269Z,15.02
2022-10-22T05:20:16.980Z,14.99
2022-10-22T05:22:21.742Z,14.97
2022-10-22T05:24:26.978Z,14.94
2022-10-22T05:26:31.806Z,14.86
2022-10-22T05:28:37.642Z,14.80
2022-10-22T05:30:42.370Z,14.72
2022-10-22T05:32:47.215Z,14.63
2022-10-22T05:34:54.591Z,14.62
2022-10-22T05:36:59.801Z,14.60
2022-10-22T05:39:04.297Z,14.55
2022-10-22T05:41:11.162Z,14.54
2022-10-22T05:43:16.536Z,14.54
2022-10-22T05:45:21.258Z,14.52
2022-10-22T05:47:27.318Z,14.49
2022-10-22T05:49:32.288Z,14.47
2022-10-22T05:51:40.054Z,14.47
2022-10-22T05:53:45.685Z,14.45
2022-10-22T05:55:50.410Z,14.44
2022-10-22T05:57:55.163Z,14.42
2022-10-22T05:59:59.921Z,14.36
2022-10-22T06:02:04.774Z,14.40
2022-10-22T06:04:16.215Z,14.43
2022-10-22T06:06:27.395Z,14.46
2022-10-22T06:08:34.860Z,14.48
2022-10-22T06:10:40.174Z,14.54
2022-10-22T06:12:44.915Z,14.58
2022-10-22T06:14:49.710Z,14.59
2022-10-22T06:16:54.863Z,14.57
2022-10-22T06:19:01.973Z,14.52
2022-10-22T06:21:08.703Z,14.47
2022-10-22T06:23:13.551Z,14.44
2022-10-22T06:25:20.991Z,14.44
2022-10-22T06:27:25.745Z,14.47
2022-10-22T06:29:30.539Z,14.48
2022-10-22T06:31:37.018Z,14.53
2022-10-22T06:33:43.672Z,14.56
2022-10-22T06:35:48.679Z,14.55
2022-10-22T06:37:53.423Z,14.53
2022-10-22T06:39:58.212Z,14.53
2022-10-22T06:42:05.516Z,14.49
2022-10-22T06:44:16.746Z,14.56
2022-10-22T06:46:23.534Z,14.64
2022-10-22T06:48:28.414Z,14.70
2022-10-22T06:50:33.435Z,14.78
2022-10-22T06:52:38.217Z,14.83
2022-10-22T06:54:42.997Z,14.87
2022-10-22T06:56:47.825Z,14.92
2022-10-22T06:58:57.282Z,14.96
2022-10-22T07:01:06.450Z,14.98
2022-10-22T07:03:13.863Z,14.96
2022-10-22T07:05:18.728Z,14.92
2022-10-22T07:07:23.434Z,14.87
2022-10-22T07:09:29.967Z,14.82
2022-10-22T07:11:41.992Z,14.76
2022-10-22T07:13:47.213Z,14.71
2022-10-22T07:15:57.523Z,14.62
2022-10-22T07:18:04.801Z,14.55
2022-10-22T07:20:10.708Z,14.51
2022-10-22T07:22:15.462Z,14.52
2022-10-22T07:24:20.186Z,14.50
2022-10-22T07:26:25.557Z,14.52
2022-10-22T07:28:30.762Z,14.53
2022-10-22T07:30:35.566Z,14.54
2022-10-22T07:32:42.941Z,14.54
2022-10-22T07:34:47.762Z,14.54
2022-10-22T07:36:52.499Z,14.56
2022-10-22T07:38:59.945Z,14.58
2022-10-22T07:41:05.053Z,14.60
2022-10-22T07:43:09.550Z,14.59
2022-10-22T07:45:14.351Z,14.60
2022-10-22T07:47:19.186Z,14.63
2022-10-22T07:49:26.758Z,14.68
2022-10-22T07:51:31.505Z,14.77
2022-10-22T07:53:37.312Z,14.85
2022-10-22T07:55:42.125Z,14.93
2022-10-22T07:57:46.852Z,15.00
2022-10-22T07:59:51.651Z,15.03
2022-10-22T08:01:56.358Z,15.06
2022-10-22T08:04:01.114Z,15.10
2022-10-22T08:06:09.198Z,15.13
2022-10-22T08:08:15.081Z,15.15
2022-10-22T08:10:19.932Z,15.16
2022-10-22T08:12:24.798Z,15.20
2022-10-22T08:14:32.549Z,15.24
2022-10-22T08:16:37.320Z,15.21
2022-10-22T08:18:42.162Z,15.21
2022-10-22T08:20:47.037Z,15.24
2022-10-22T08:22:54.389Z,15.29
2022-10-22T08:25:00.492Z,15.39
2022-10-22T08:27:05.267Z,15.38
2022-10-22T08:29:10.200Z,15.42
2022-10-22T08:31:15.439Z,15.47
2022-10-22T08:33:19.979Z,15.44
2022-10-22T08:35:28.190Z,15.53
2022-10-22T08:37:32.937Z,15.52
2022-10-22T08:39:40.366Z,15.55
2022-10-22T08:41:57.242Z,15.61
2022-10-22T08:44:31.794Z,15.66
2022-10-22T08:46:55.741Z,15.67
2022-10-22T08:49:03.046Z,15.68
2022-10-22T08:51:08.614Z,15.71
2022-10-22T08:53:18.790Z,15.78
2022-10-22T08:55:28.395Z,15.83
2022-10-22T08:57:52.134Z,15.88
2022-10-22T09:00:04.772Z,15.95
2022-10-22T09:02:23.779Z,16.02
2022-10-22T09:04:33.938Z,16.14
2022-10-22T09:06:40.747Z,16.16
2022-10-22T09:08:48.151Z,16.24
2022-10-22T09:11:01.461Z,16.32
2022-10-22T09:13:06.213Z,16.37
2022-10-22T09:15:15.984Z,16.41
2022-10-22T09:17:29.121Z,16.63
2022-10-22T09:19:42.835Z,16.70
2022-10-22T09:22:00.265Z,16.85
2022-10-22T09:24:14.101Z,17.11
2022-10-22T09:26:21.446Z,17.13
2022-10-22T09:28:26.396Z,17.07
2022-10-22T09:30:31.771Z,17.02
2022-10-22T09:32:36.494Z,16.91
2022-10-22T09:34:41.977Z,16.89
2022-10-22T09:36:46.709Z,16.84
2022-10-22T09:38:53.703Z,16.92
2022-10-22T09:41:00.680Z,16.91
2022-10-22T09:43:08.111Z,16.81
2022-10-22T09:45:20.923Z,16.72
2022-10-22T09:47:43.588Z,16.64
2022-10-22T09:50:15.262Z,16.56
2022-10-22T09:52:33.627Z,16.67
2022-10-22T09:54:44.306Z,16.60
2022-10-22T09:56:58.632Z,16.67
2022-10-22T09:59:06.643Z,16.65
2022-10-22T10:01:11.406Z,16.65
2022-10-22T10:03:20.361Z,16.74
2022-10-22T10:05:31.342Z,16.84
2022-10-22T10:07:38.289Z,16.76
2022-10-22T10:09:43.183Z,16.83
2022-10-22T10:11:54.744Z,16.91
2022-10-22T10:14:14.058Z,17.05
2022-10-22T10:16:33.816Z,17.04
2022-10-22T10:18:55.804Z,17.08
2022-10-22T10:21:09.517Z,17.15
2022-10-22T10:23:24.547Z,17.24
2022-10-22T10:25:48.668Z,17.35
2022-10-22T10:28:02.549Z,17.41
2022-10-22T10:30:17.834Z,17.49
2022-10-22T10:32:37.838Z,17.49
2022-10-22T10:34:49.105Z,17.51
2022-10-22T10:37:04.024Z,17.58
2022-10-22T10:39:14.158Z,17.54
2022-10-22T10:41:35.261Z,17.53
2022-10-22T10:43:52.208Z,17.50
2022-10-22T10:46:10.587Z,17.60
2022-10-22T10:48:35.979Z,17.64
2022-10-22T10:50:51.146Z,17.79
2022-10-22T10:53:06.256Z,17.94
2022-10-22T10:55:19.459Z,18.01
2022-10-22T10:57:37.163Z,17.94
2022-10-22T10:59:52.948Z,17.83
2022-10-22T11:02:16.769Z,17.84
2022-10-22T11:04:46.671Z,17.89
2022-10-22T11:07:05.876Z,18.02
2022-10-22T11:09:27.396Z,18.30
2022-10-22T11:11:38.549Z,18.34
2022-10-22T11:13:50.373Z,18.54
2022-10-22T11:16:00.698Z,18.53
2022-10-22T11:18:17.133Z,18.43
2022-10-22T11:20:26.877Z,18.49
2022-10-22T11:22:36.510Z,18.62
2022-10-22T11:24:50.784Z,18.55
2022-10-22T11:27:00.762Z,18.50
2022-10-22T11:29:07.821Z,18.43
2022-10-22T11:31:17.610Z,18.43
2022-10-22T11:33:31.028Z,18.43
2022-10-22T11:35:38.471Z,18.44
2022-10-22T11:37:46.149Z,18.37
2022-10-22T11:39:54.028Z,18.42
2022-10-22T11:42:01.255Z,18.48
2022-10-22T11:44:14.617Z,18.54
2022-10-22T11:46:31.707Z,18.54
2022-10-22T11:48:41.241Z,18.45
2022-10-22T11:50:53.097Z,18.37
2022-10-22T11:53:05.507Z,18.23
2022-10-22T11:55:35.381Z,18.20
2022-10-22T11:57:41.741Z,18.08
2022-10-22T11:59:53.221Z,18.10
2022-10-22T12:01:58.853Z,18.06
2022-10-22T12:04:24.970Z,18.09
2022-10-22T12:06:31.793Z,18.01
2022-10-22T12:08:37.161Z,18.04
2022-10-22T12:10:58.305Z,18.06
2022-10-22T12:13:08.297Z,17.98
2022-10-22T12:15:27.577Z,18.09
2022-10-22T12:17:33.888Z,18.15
2022-10-22T12:19:44.083Z,18.21
2022-10-22T12:21:52.639Z,18.20
2022-10-22T12:23:57.573Z,18.14
2022-10-22T12:26:02.535Z,18.17
2022-10-22T12:28:09.905Z,18.22
2022-10-22T12:30:22.434Z,18.20
2022-10-22T12:32:36.626Z,18.24
2022-10-22T12:36:57.300Z,18.15
2022-10-22T12:39:03.213Z,18.28
2022-10-22T12:41:08.288Z,18.46
2022-10-22T12:43:14.809Z,18.34
2022-10-22T12:45:19.672Z,18.46
2022-10-22T12:47:24.496Z,18.49
2022-10-22T12:49:37.301Z,18.63
2022-10-22T12:51:45.117Z,18.69
2022-10-22T12:53:52.009Z,18.71
2022-10-22T12:55:58.623Z,18.87
2022-10-22T12:58:08.580Z,18.91
2022-10-22T13:00:26.648Z,18.99
2022-10-22T13:02:32.500Z,18.91
2022-10-22T13:04:38.784Z,18.84
2022-10-22T13:06:50.454Z,18.90
2022-10-22T13:09:10.943Z,18.87
2022-10-22T13:11:15.721Z,18.82
2022-10-22T13:13:43.554Z,18.81
2022-10-22T13:15:48.348Z,18.73
2022-10-22T13:17:54.018Z,18.76
2022-10-22T13:20:05.441Z,18.71
2022-10-22T13:22:30.825Z,18.66
2022-10-22T13:24:39.225Z,18.51
2022-10-22T13:26:43.971Z,18.54
2022-10-22T13:28:54.754Z,18.62
2022-10-22T13:31:01.505Z,18.61
2022-10-22T13:33:08.639Z,18.58
2022-10-22T13:35:26.568Z,18.60
2022-10-22T13:37:38.737Z,18.70
2022-10-22T13:39:43.620Z,18.73
2022-10-22T13:41:50.386Z,18.70
2022-10-22T13:43:55.878Z,18.69
2022-10-22T13:46:02.754Z,18.63
2022-10-22T13:48:07.945Z,18.66
2022-10-22T13:50:17.523Z,18.64
2022-10-22T13:52:42.184Z,18.61
2022-10-22T13:54:47.205Z,18.48
2022-10-22T13:56:52.894Z,18.40
2022-10-22T13:58:57.723Z,18.34
2022-10-22T14:01:08.749Z,18.39
2022-10-22T14:03:14.965Z,18.39
2022-10-22T14:05:21.124Z,18.33
2022-10-22T14:07:25.871Z,18.40
2022-10-22T14:09:33.176Z,18.35
2022-10-22T14:11:37.989Z,18.30
2022-10-22T14:13:43.074Z,18.31
2022-10-22T14:15:50.912Z,18.30
2022-10-22T14:17:59.397Z,18.31
2022-10-22T14:20:04.526Z,18.36
2022-10-22T14:22:13.090Z,18.31
2022-10-22T14:24:17.865Z,18.36
2022-10-22T14:26:31.425Z,18.33
2022-10-22T14:28:41.270Z,18.30
2022-10-22T14:30:57.215Z,18.34
2022-10-22T14:33:02.198Z,18.40
2022-10-22T14:35:07.360Z,18.45
2022-10-22T14:37:23.627Z,18.36
2022-10-22T14:39:30.277Z,18.35
2022-10-22T14:41:37.901Z,18.37
2022-10-22T14:43:42.593Z,18.34
2022-10-22T14:45:47.356Z,18.35
2022-10-22T14:47:52.468Z,18.33
2022-10-22T14:49:56.925Z,18.29
2022-10-22T14:52:01.773Z,18.35
2022-10-22T14:54:06.778Z,18.36
2022-10-22T14:56:14.849Z,18.40
2022-10-22T14:58:22.288Z,18.37
2022-10-22T15:00:27.055Z,18.29
2022-10-22T15:02:31.869Z,18.24
2022-10-22T15:04:36.713Z,18.25
2022-10-22T15:06:41.508Z,18.29
2022-10-22T15:08:48.136Z,18.28
2022-10-22T15:11:01.591Z,18.29
2022-10-22T15:13:06.418Z,18.27
2022-10-22T15:15:14.136Z,18.29
2022-10-22T15:17:20.226Z,18.35
2022-10-22T15:19:25.013Z,18.32
2022-10-22T15:21:32.534Z,18.30
2022-10-22T15:23:39.295Z,18.22
2022-10-22T15:25:46.475Z,18.17
2022-10-22T15:27:52.567Z,18.12
2022-10-22T15:30:00.786Z,18.14
2022-10-22T15:32:10.430Z,18.14
2022-10-22T15:34:15.680Z,18.13
2022-10-22T15:36:20.463Z,18.10
2022-10-22T15:40:35.103Z,18.01
2022-10-22T15:42:40.157Z,18.01
2022-10-22T15:44:45.117Z,18.03
2022-10-22T15:48:58.170Z,18.05
2022-10-22T15:51:02.942Z,18.05
2022-10-22T15:53:08.109Z,18.06
2022-10-22T15:57:37.738Z,18.06
2022-10-22T15:59:42.490Z,18.03
2022-10-22T16:01:47.933Z,18.04
2022-10-22T16:04:00.282Z,18.03
2022-10-22T16:06:09.237Z,17.98
2022-10-22T16:08:14.313Z,17.96
2022-10-22T16:10:21.790Z,17.97
2022-10-22T16:12:26.680Z,18.00
2022-10-22T16:14:31.608Z,18.02
2022-10-22T16:16:39.929Z,18.04
2022-10-22T16:18:44.644Z,18.06
2022-10-22T16:20:49.796Z,18.05
2022-10-22T16:22:56.878Z,17.98
2022-10-22T16:25:01.624Z,17.96
2022-10-22T16:27:07.034Z,17.92
2022-10-22T16:29:12.683Z,17.88
2022-10-22T16:31:19.741Z,17.85
2022-10-22T16:33:24.897Z,17.81
2022-10-22T16:35:32.879Z,17.78
2022-10-22T16:37:39.267Z,17.75
2022-10-22T16:39:46.882Z,17.73
2022-10-22T16:41:51.913Z,17.70
2022-10-22T16:44:00.421Z,17.65
2022-10-22T16:46:05.985Z,17.59
2022-10-22T16:48:11.797Z,17.54
2022-10-22T16:50:16.526Z,17.48
2022-10-22T16:52:21.297Z,17.43
2022-10-22T16:54:26.080Z,17.40
2022-10-22T16:56:33.756Z,17.38
2022-10-22T16:58:38.484Z,17.33
2022-10-22T17:00:43.309Z,17.31
2022-10-22T17:02:48.148Z,17.28
2022-10-22T17:04:52.949Z,17.22
2022-10-22T17:06:57.663Z,17.16
2022-10-22T17:09:02.468Z,17.11
2022-10-22T17:11:11.285Z,17.08
2022-10-22T17:13:18.747Z,17.03
2022-10-22T17:15:23.479Z,17.00
2022-10-22T17:17:30.686Z,16.92
2022-10-22T17:19:38.821Z,16.86
2022-10-22T17:21:43.657Z,16.81
2022-10-22T17:23:49.046Z,16.73
2022-10-22T17:26:01.234Z,16.68
2022-10-22T17:28:06.050Z,16.61
2022-10-22T17:30:19.208Z,16.54
2022-10-22T17:32:26.691Z,16.47
2022-10-22T17:34:33.301Z,16.41
2022-10-22T17:36:38.787Z,16.37
2022-10-22T17:38:45.458Z,16.32
2022-10-22T17:40:50.226Z,16.27
2022-10-22T17:42:55.122Z,16.24
2022-10-22T17:45:00.341Z,16.20
2022-10-22T17:47:07.465Z,16.12
2022-10-22T17:49:18.895Z,16.09
2022-10-22T17:51:24.928Z,16.05
2022-10-22T17:53:30.856Z,16.01
2022-10-22T17:55:36.337Z,15.95
2022-10-22T17:57:41.486Z,15.90
2022-10-22T17:59:45.962Z,15.83
2022-10-22T18:01:50.757Z,15.80
2022-10-22T18:04:02.210Z,15.77
2022-10-22T18:06:11.075Z,15.72
2022-10-22T18:08:15.869Z,15.66
2022-10-22T18:10:20.579Z,15.63
2022-10-22T18:12:26.868Z,15.60
2022-10-22T18:14:31.575Z,15.56
2022-10-22T18:16:36.562Z,15.53
2022-10-22T18:18:41.374Z,15.50
2022-10-22T18:20:51.453Z,15.47
2022-10-22T18:22:57.097Z,15.42
2022-10-22T18:25:01.803Z,15.39
2022-10-22T18:27:06.734Z,15.38
2022-10-22T18:29:12.625Z,15.37
2022-10-22T18:31:21.520Z,15.39
2022-10-22T18:33:26.720Z,15.37
2022-10-22T18:35:34.276Z,15.34
2022-10-22T18:37:42.476Z,15.32
2022-10-22T18:39:47.544Z,15.28
2022-10-22T18:41:52.266Z,15.26
2022-10-22T18:43:58.993Z,15.23
2022-10-22T18:46:04.347Z,15.20
2022-10-22T18:48:08.815Z,15.15
2022-10-22T18:50:13.560Z,15.13
2022-10-22T18:52:18.322Z,15.11
2022-10-22T18:54:28.336Z,15.11
2022-10-22T18:56:33.126Z,15.10
2022-10-22T18:58:40.681Z,15.11
2022-10-22T19:00:45.500Z,15.08
2022-10-22T19:02:50.265Z,15.08
2022-10-22T19:04:55.020Z,15.10
2022-10-22T19:07:00.039Z,15.10
2022-10-22T19:09:04.870Z,15.07
2022-10-22T19:11:16.319Z,15.08
2022-10-22T19:13:23.456Z,15.05
2022-10-22T19:15:30.298Z,15.04
2022-10-22T19:17:35.077Z,15.01
2022-10-22T19:19:39.851Z,14.97
2022-10-22T19:21:44.560Z,14.93
2022-10-22T19:23:49.603Z,14.92
2022-10-22T19:26:02.959Z,14.88
2022-10-22T19:28:10.385Z,14.85
2022-10-22T19:30:16.219Z,14.83
2022-10-22T19:32:21.526Z,14.80
2022-10-22T19:34:26.424Z,14.82
2022-10-22T19:36:32.816Z,14.81
2022-10-22T19:38:38.124Z,14.80
2022-10-22T19:40:43.769Z,14.79
2022-10-22T19:42:51.327Z,14.77
2022-10-22T19:44:58.714Z,14.76
2022-10-22T19:47:03.458Z,14.72
2022-10-22T19:49:08.719Z,14.71
2022-10-22T19:51:17.233Z,14.66
2022-10-22T19:53:21.981Z,14.64
2022-10-22T19:55:29.344Z,14.64
2022-10-22T19:57:34.114Z,14.64
2022-10-22T19:59:38.918Z,14.63
2022-10-22T20:01:46.585Z,14.61
2022-10-22T20:03:51.655Z,14.59
2022-10-22T20:05:56.218Z,14.52
2022-10-22T20:08:00.975Z,14.52
2022-10-22T20:10:06.087Z,14.51
2022-10-22T20:12:10.908Z,14.52
2022-10-22T20:14:16.554Z,14.52
2022-10-22T20:16:23.641Z,14.52
2022-10-22T20:18:32.724Z,14.51
2022-10-22T20:20:40.067Z,14.49
2022-10-22T20:22:44.906Z,14.46
2022-10-22T20:24:49.730Z,14.42
2022-10-22T20:26:54.482Z,14.40
2022-10-22T20:28:59.900Z,14.39
2022-10-22T20:31:04.652Z,14.38
2022-10-22T20:33:09.448Z,14.39
2022-10-22T20:35:17.986Z,14.39
2022-10-22T20:37:22.702Z,14.38
2022-10-22T20:39:27.627Z,14.35
2022-10-22T20:41:34.037Z,14.29
2022-10-22T20:43:38.835Z,14.29
2022-10-22T20:45:43.648Z,14.28
2022-10-22T20:47:51.557Z,14.25
2022-10-22T20:50:03.033Z,14.25
2022-10-22T20:52:10.951Z,14.24
2022-10-22T20:54:19.001Z,14.25
2022-10-22T20:56:26.771Z,14.25
2022-10-22T20:58:32.136Z,14.24
2022-10-22T21:00:39.383Z,14.19
2022-10-22T21:02:44.162Z,14.18
2022-10-22T21:04:49.011Z,14.11
2022-10-22T21:06:53.704Z,14.08
2022-10-22T21:09:01.104Z,14.10
2022-10-22T21:11:05.972Z,14.06
2022-10-22T21:13:10.821Z,14.05
2022-10-22T21:15:15.622Z,14.04
2022-10-22T21:17:20.396Z,14.04
2022-10-22T21:19:26.112Z,14.02
2022-10-22T21:21:31.101Z,14.02
2022-10-22T21:23:36.367Z,14.03
2022-10-22T21:25:44.005Z,14.00
2022-10-22T21:27:48.799Z,13.97
2022-10-22T21:29:53.619Z,13.97
2022-10-22T21:31:58.339Z,13.96
2022-10-22T21:34:03.145Z,13.98
2022-10-22T21:36:09.645Z,13.96
2022-10-22T21:38:14.434Z,13.93
2022-10-22T21:40:19.198Z,13.91
2022-10-22T21:42:26.675Z,13.87
2022-10-22T21:44:31.592Z,13.88
2022-10-22T21:46:37.578Z,13.89
2022-10-22T21:48:42.490Z,13.90
2022-10-22T21:50:47.553Z,13.88
2022-10-22T21:52:52.180Z,13.84
2022-10-22T21:54:57.005Z,13.84
2022-10-22T21:57:01.732Z,13.84
2022-10-22T21:59:10.081Z,13.81
2022-10-22T22:01:15.879Z,13.80
2022-10-22T22:03:20.666Z,13.78
2022-10-22T22:05:27.450Z,13.77
2022-10-22T22:07:32.247Z,13.73
2022-10-22T22:09:37.012Z,13.74
2022-10-22T22:11:41.763Z,13.76
2022-10-22T22:13:47.292Z,13.76
2022-10-22T22:15:55.141Z,13.77
2022-10-22T22:17:59.924Z,13.79
2022-10-22T22:20:05.956Z,13.78
2022-10-22T22:22:10.825Z,13.77
2022-10-22T22:24:16.089Z,13.75
2022-10-22T22:26:29.610Z,13.74
2022-10-22T22:28:35.958Z,13.69
2022-10-22T22:30:40.695Z,13.71
2022-10-22T22:32:48.062Z,13.70
2022-10-22T22:34:52.821Z,13.69
2022-10-22T22:36:57.535Z,13.68
2022-10-22T22:39:02.298Z,13.62
2022-10-22T22:41:07.631Z,13.57
2022-10-22T22:43:13.898Z,13.60
2022-10-22T22:45:18.874Z,13.58
2022-10-22T22:47:23.637Z,13.58
2022-10-22T22:49:30.953Z,13.57
2022-10-22T22:51:36.833Z,13.56
2022-10-22T22:53:41.531Z,13.53
2022-10-22T22:55:46.401Z,13.54
2022-10-22T22:57:51.212Z,13.49
2022-10-22T22:59:55.964Z,13.50
2022-10-22T23:02:01.256Z,13.51
2022-10-22T23:04:07.034Z,13.48
2022-10-22T23:06:14.968Z,13.40
2022-10-22T23:08:19.716Z,13.42
2022-10-22T23:10:24.552Z,13.41
2022-10-22T23:12:29.522Z,13.38
2022-10-22T23:14:34.263Z,13.38
2022-10-22T23:16:44.307Z,13.38
2022-10-22T23:18:50.270Z,13.37
2022-10-22T23:20:55.218Z,13.36
2022-10-22T23:23:06.107Z,13.36
2022-10-22T23:25:12.176Z,13.36
2022-10-22T23:27:16.884Z,13.35
2022-10-22T23:29:24.716Z,13.33
2022-10-22T23:31:29.626Z,13.34
2022-10-22T23:33:34.331Z,13.34
2022-10-22T23:35:42.219Z,13.34
2022-10-22T23:37:47.010Z,13.33
2022-10-22T23:39:54.278Z,13.25
2022-10-22T23:41:59.705Z,13.17
2022-10-22T23:44:04.820Z,13.17
2022-10-22T23:46:10.147Z,13.11
2022-10-22T23:48:15.005Z,13.13
2022-10-22T23:50:19.760Z,13.13
2022-10-22T23:52:24.529Z,13.13
2022-10-22T23:54:29.387Z,13.13
2022-10-22T23:56:37.570Z,13.13
2022-10-22T23:58:42.873Z,13.11
